Etusivu
METAR-TAF:

METAR-TAF

Lentoasemat :

Trent Lott International Airport

Pascagoula, Mississippi, Yhdysvallat

Leveyspiiri: 30-27-49N, Pituuspiiri: 088-31-55W, korkeus merenpinnasta: 5 m

Tämänhetkinen sää

Tämä raportti tehtiin 47 minuuttia sitten, kello 08.53 UTC
Tuuli 3 kn luoteesta
Lämpötila 4°C
Kosteus 87%
Ilmanpaine 1028 hPa
Näkyvyys: 16.1 km
selkeää

METAR: KPQL 110853Z AUTO 32003KT 10SM CLR 04/02 A3035 RMK AO2 SLP279 T00440022 50002

Aika: 03:40 (09:40 UTC)


TAF: puuttuu

Säähavainnot ja -ennusteet yli 4000 lentoasemalta (METAR- ja TAF-raportit).

Käytössä olevat sääasemat on merkitty karttaan keltaisilla ja punaisilla pisteillä.

Aseta hiiri pisteen päälle nähdäksesi sääaseman nimen.

Klikkaa sitten nähdäksesi säähavainnot ja -ennusteet.

Kartan vaihtaminen: klikkaa mustalla rastilla varustettuja vihreitä pisteitä, niin voit zoomata sisään; viivalla varustettua vihreää pistettä, niin voit zoomata ulos tai vihreitä nuolia, niin pääset viereisille kartoille.


METAR-TAF: